sensor_id;sensor_type;location;lat;lon;timestamp;pressure;altitude;pressure_sealevel;temperature;humidity
44979;BME280;67464;52.438;-1.904;2023-03-01T00:02:08;101945.47;;;3.27;100.00
44979;BME280;67464;52.438;-1.904;2023-03-01T00:04:34;101945.63;;;3.31;100.00
44979;BME280;67464;52.438;-1.904;2023-03-01T00:06:59;101944.80;;;3.14;100.00
44979;BME280;67464;52.438;-1.904;2023-03-01T00:09:25;101942.15;;;3.15;100.00
44979;BME280;67464;52.438;-1.904;2023-03-01T00:11:50;101943.46;;;3.03;100.00
44979;BME280;67464;52.438;-1.904;2023-03-01T00:14:16;101940.67;;;3.41;100.00
44979;BME280;67464;52.438;-1.904;2023-03-01T00:16:43;101937.39;;;3.08;100.00
44979;BME280;67464;52.438;-1.904;2023-03-01T00:19:11;101935.73;;;3.28;100.00
44979;BME280;67464;52.438;-1.904;2023-03-01T00:21:33;101934.33;;;3.66;100.00
44979;BME280;67464;52.438;-1.904;2023-03-01T00:23:58;101935.46;;;3.83;100.00
44979;BME280;67464;52.438;-1.904;2023-03-01T00:26:25;101935.52;;;2.95;100.00
44979;BME280;67464;52.438;-1.904;2023-03-01T00:28:50;101934.15;;;3.62;100.00
44979;BME280;67464;52.438;-1.904;2023-03-01T00:31:16;101941.32;;;3.92;100.00
44979;BME280;67464;52.438;-1.904;2023-03-01T00:33:40;101940.28;;;3.66;100.00
44979;BME280;67464;52.438;-1.904;2023-03-01T00:36:06;101944.76;;;4.34;100.00
44979;BME280;67464;52.438;-1.904;2023-03-01T00:38:34;101940.91;;;4.36;100.00
44979;BME280;67464;52.438;-1.904;2023-03-01T00:41:03;101936.66;;;5.18;100.00
44979;BME280;67464;52.438;-1.904;2023-03-01T00:43:21;101929.19;;;5.09;100.00
44979;BME280;67464;52.438;-1.904;2023-03-01T00:45:47;101927.15;;;5.48;99.53
44979;BME280;67464;52.438;-1.904;2023-03-01T00:48:13;101933.29;;;4.12;100.00
44979;BME280;67464;52.438;-1.904;2023-03-01T00:50:38;101922.78;;;3.61;100.00
44979;BME280;67464;52.438;-1.904;2023-03-01T00:53:04;101921.56;;;3.61;100.00
44979;BME280;67464;52.438;-1.904;2023-03-01T00:55:29;101915.45;;;3.42;100.00
44979;BME280;67464;52.438;-1.904;2023-03-01T00:57:55;101918.64;;;3.55;100.00
44979;BME280;67464;52.438;-1.904;2023-03-01T01:00:21;101921.01;;;3.33;100.00
44979;BME280;67464;52.438;-1.904;2023-03-01T01:02:46;101920.46;;;3.24;100.00
44979;BME280;67464;52.438;-1.904;2023-03-01T01:05:12;101918.90;;;3.23;100.00
44979;BME280;67464;52.438;-1.904;2023-03-01T01:07:37;101917.59;;;2.93;100.00
44979;BME280;67464;52.438;-1.904;2023-03-01T01:10:03;101916.60;;;3.11;100.00
44979;BME280;67464;52.438;-1.904;2023-03-01T01:12:28;101915.87;;;2.81;100.00
44979;BME280;67464;52.438;-1.904;2023-03-01T01:14:53;101911.67;;;2.86;100.00
44979;BME280;67464;52.438;-1.904;2023-03-01T01:17:19;101906.84;;;2.97;100.00
44979;BME280;67464;52.438;-1.904;2023-03-01T01:19:44;101913.37;;;2.45;100.00
44979;BME280;67464;52.438;-1.904;2023-03-01T01:22:09;101913.41;;;2.61;100.00
44979;BME280;67464;52.438;-1.904;2023-03-01T01:24:35;101912.45;;;2.24;100.00
44979;BME280;67464;52.438;-1.904;2023-03-01T01:27:01;101905.02;;;2.45;100.00
44979;BME280;67464;52.438;-1.904;2023-03-01T01:29:26;101903.22;;;2.74;100.00
44979;BME280;67464;52.438;-1.904;2023-03-01T01:31:52;101900.29;;;2.74;100.00
44979;BME280;67464;52.438;-1.904;2023-03-01T01:34:19;101904.81;;;2.98;100.00
44979;BME280;67464;52.438;-1.904;2023-03-01T01:36:42;101905.78;;;2.29;100.00
44979;BME280;67464;52.438;-1.904;2023-03-01T01:39:08;101899.27;;;2.81;100.00
44979;BME280;67464;52.438;-1.904;2023-03-01T01:41:34;101891.33;;;2.64;100.00
44979;BME280;67464;52.438;-1.904;2023-03-01T01:44:11;101891.50;;;2.99;100.00
44979;BME280;67464;52.438;-1.904;2023-03-01T01:46:28;101893.01;;;2.52;100.00
44979;BME280;67464;52.438;-1.904;2023-03-01T01:48:54;101889.07;;;2.71;100.00
44979;BME280;67464;52.438;-1.904;2023-03-01T01:51:19;101886.39;;;2.75;100.00
44979;BME280;67464;52.438;-1.904;2023-03-01T01:53:43;101885.66;;;3.02;100.00
44979;BME280;67464;52.438;-1.904;2023-03-01T01:56:08;101884.63;;;3.47;100.00
44979;BME280;67464;52.438;-1.904;2023-03-01T01:58:31;101886.49;;;3.24;100.00
44979;BME280;67464;52.438;-1.904;2023-03-01T02:00:56;101884.57;;;4.64;100.00
44979;BME280;67464;52.438;-1.904;2023-03-01T02:03:26;101883.23;;;4.58;100.00
44979;BME280;67464;52.438;-1.904;2023-03-01T02:05:51;101875.04;;;4.74;100.00
44979;BME280;67464;52.438;-1.904;2023-03-01T02:08:13;101876.26;;;5.03;100.00
44979;BME280;67464;52.438;-1.904;2023-03-01T02:10:38;101876.82;;;5.39;100.00
44979;BME280;67464;52.438;-1.904;2023-03-01T02:13:04;101875.00;;;5.07;98.56
44979;BME280;67464;52.438;-1.904;2023-03-01T02:15:31;101866.91;;;4.95;98.76
44979;BME280;67464;52.438;-1.904;2023-03-01T02:17:56;101865.21;;;4.72;100.00
44979;BME280;67464;52.438;-1.904;2023-03-01T02:20:26;101865.14;;;4.36;100.00
44979;BME280;67464;52.438;-1.904;2023-03-01T02:22:47;101857.00;;;4.88;100.00
44979;BME280;67464;52.438;-1.904;2023-03-01T02:25:24;101858.69;;;4.67;100.00
44979;BME280;67464;52.438;-1.904;2023-03-01T02:27:41;101858.77;;;4.76;100.00
44979;BME280;67464;52.438;-1.904;2023-03-01T02:30:05;101860.84;;;5.10;100.00
44979;BME280;67464;52.438;-1.904;2023-03-01T02:32:30;101857.32;;;5.76;100.00
44979;BME280;67464;52.438;-1.904;2023-03-01T02:34:56;101858.54;;;5.61;100.00
44979;BME280;67464;52.438;-1.904;2023-03-01T02:37:21;101853.70;;;5.88;96.31
44979;BME280;67464;52.438;-1.904;2023-03-01T02:39:48;101851.99;;;5.36;96.51
44979;BME280;67464;52.438;-1.904;2023-03-01T02:42:14;101852.62;;;5.89;97.84
44979;BME280;67464;52.438;-1.904;2023-03-01T02:44:37;101849.47;;;5.52;100.00
44979;BME280;67464;52.438;-1.904;2023-03-01T02:47:04;101841.82;;;4.42;100.00
44979;BME280;67464;52.438;-1.904;2023-03-01T02:49:30;101847.35;;;4.03;100.00
44979;BME280;67464;52.438;-1.904;2023-03-01T02:52:11;101846.01;;;3.97;100.00
44979;BME280;67464;52.438;-1.904;2023-03-01T02:54:25;101839.11;;;5.02;100.00
44979;BME280;67464;52.438;-1.904;2023-03-01T02:56:45;101830.69;;;5.31;100.00
44979;BME280;67464;52.438;-1.904;2023-03-01T02:59:11;101826.79;;;4.67;100.00
44979;BME280;67464;52.438;-1.904;2023-03-01T03:01:37;101830.30;;;3.86;100.00
44979;BME280;67464;52.438;-1.904;2023-03-01T03:04:04;101820.51;;;3.27;100.00
44979;BME280;67464;52.438;-1.904;2023-03-01T03:06:28;101818.22;;;3.12;100.00
44979;BME280;67464;52.438;-1.904;2023-03-01T03:08:53;101819.39;;;3.76;100.00
44979;BME280;67464;52.438;-1.904;2023-03-01T03:11:19;101817.56;;;3.77;100.00
44979;BME280;67464;52.438;-1.904;2023-03-01T03:13:44;101814.82;;;4.71;100.00
44979;BME280;67464;52.438;-1.904;2023-03-01T03:16:10;101817.07;;;3.80;100.00
44979;BME280;67464;52.438;-1.904;2023-03-01T03:18:36;101809.91;;;4.65;100.00
44979;BME280;67464;52.438;-1.904;2023-03-01T03:21:02;101810.53;;;5.49;100.00
44979;BME280;67464;52.438;-1.904;2023-03-01T03:23:27;101806.77;;;6.07;100.00
44979;BME280;67464;52.438;-1.904;2023-03-01T03:25:53;101802.65;;;6.06;100.00
44979;BME280;67464;52.438;-1.904;2023-03-01T03:28:24;101806.52;;;5.47;100.00
44979;BME280;67464;52.438;-1.904;2023-03-01T03:30:45;101804.25;;;4.57;100.00
44979;BME280;67464;52.438;-1.904;2023-03-01T03:33:11;101803.84;;;4.93;100.00
44979;BME280;67464;52.438;-1.904;2023-03-01T03:35:40;101803.20;;;4.44;100.00
44979;BME280;67464;52.438;-1.904;2023-03-01T03:38:06;101797.92;;;4.57;100.00
44979;BME280;67464;52.438;-1.904;2023-03-01T03:40:29;101795.51;;;4.23;100.00
44979;BME280;67464;52.438;-1.904;2023-03-01T03:42:54;101790.78;;;4.34;100.00
44979;BME280;67464;52.438;-1.904;2023-03-01T03:45:18;101790.79;;;5.01;100.00
44979;BME280;67464;52.438;-1.904;2023-03-01T03:47:44;101785.68;;;4.34;100.00
44979;BME280;67464;52.438;-1.904;2023-03-01T03:50:11;101783.64;;;4.46;100.00
44979;BME280;67464;52.438;-1.904;2023-03-01T03:52:35;101783.06;;;4.39;100.00
44979;BME280;67464;52.438;-1.904;2023-03-01T03:55:01;101779.52;;;4.24;100.00
44979;BME280;67464;52.438;-1.904;2023-03-01T03:57:27;101776.72;;;5.14;100.00
44979;BME280;67464;52.438;-1.904;2023-03-01T03:59:53;101766.17;;;5.40;100.00
44979;BME280;67464;52.438;-1.904;2023-03-01T04:02:18;101769.71;;;4.81;100.00
44979;BME280;67464;52.438;-1.904;2023-03-01T04:04:44;101767.54;;;4.68;100.00
44979;BME280;67464;52.438;-1.904;2023-03-01T04:07:10;101774.70;;;5.19;100.00
44979;BME280;67464;52.438;-1.904;2023-03-01T04:09:35;101771.57;;;4.52;100.00
44979;BME280;67464;52.438;-1.904;2023-03-01T04:12:01;101775.02;;;3.91;100.00
44979;BME280;67464;52.438;-1.904;2023-03-01T04:14:26;101770.04;;;3.87;100.00
44979;BME280;67464;52.438;-1.904;2023-03-01T04:16:51;101767.55;;;4.59;100.00
44979;BME280;67464;52.438;-1.904;2023-03-01T04:19:17;101765.64;;;3.79;100.00
44979;BME280;67464;52.438;-1.904;2023-03-01T04:21:42;101766.44;;;4.06;100.00
44979;BME280;67464;52.438;-1.904;2023-03-01T04:24:08;101770.53;;;3.36;100.00
44979;BME280;67464;52.438;-1.904;2023-03-01T04:26:33;101770.19;;;3.57;100.00
44979;BME280;67464;52.438;-1.904;2023-03-01T04:28:58;101767.85;;;2.76;100.00
44979;BME280;67464;52.438;-1.904;2023-03-01T04:31:24;101771.26;;;2.70;100.00
44979;BME280;67464;52.438;-1.904;2023-03-01T04:33:51;101768.80;;;3.42;100.00
44979;BME280;67464;52.438;-1.904;2023-03-01T04:36:16;101764.42;;;3.17;100.00
44979;BME280;67464;52.438;-1.904;2023-03-01T04:38:41;101766.37;;;2.82;100.00
44979;BME280;67464;52.438;-1.904;2023-03-01T04:41:06;101765.03;;;3.13;100.00
44979;BME280;67464;52.438;-1.904;2023-03-01T04:43:30;101767.86;;;3.15;100.00
44979;BME280;67464;52.438;-1.904;2023-03-01T04:46:00;101765.64;;;3.71;100.00
44979;BME280;67464;52.438;-1.904;2023-03-01T04:48:21;101773.30;;;3.64;100.00
44979;BME280;67464;52.438;-1.904;2023-03-01T04:50:46;101775.27;;;3.62;100.00
44979;BME280;67464;52.438;-1.904;2023-03-01T04:53:11;101771.45;;;3.24;100.00
44979;BME280;67464;52.438;-1.904;2023-03-01T04:55:37;101769.97;;;3.34;100.00
44979;BME280;67464;52.438;-1.904;2023-03-01T04:58:03;101767.23;;;3.79;100.00
44979;BME280;67464;52.438;-1.904;2023-03-01T05:00:28;101757.96;;;4.34;100.00
44979;BME280;67464;52.438;-1.904;2023-03-01T05:02:55;101761.11;;;4.19;100.00
44979;BME280;67464;52.438;-1.904;2023-03-01T05:05:20;101764.11;;;3.52;100.00
44979;BME280;67464;52.438;-1.904;2023-03-01T05:07:44;101765.44;;;4.25;100.00
44979;BME280;67464;52.438;-1.904;2023-03-01T05:10:10;101764.78;;;3.92;100.00
44979;BME280;67464;52.438;-1.904;2023-03-01T05:12:34;101766.97;;;2.94;100.00
44979;BME280;67464;52.438;-1.904;2023-03-01T05:14:59;101766.32;;;3.30;100.00
44979;BME280;67464;52.438;-1.904;2023-03-01T05:17:25;101761.41;;;3.88;100.00
44979;BME280;67464;52.438;-1.904;2023-03-01T05:19:50;101759.76;;;4.01;100.00
44979;BME280;67464;52.438;-1.904;2023-03-01T05:22:16;101759.15;;;4.26;100.00
44979;BME280;67464;52.438;-1.904;2023-03-01T05:24:41;101755.27;;;3.99;100.00
44979;BME280;67464;52.438;-1.904;2023-03-01T05:27:06;101752.91;;;4.71;100.00
44979;BME280;67464;52.438;-1.904;2023-03-01T05:29:32;101750.15;;;3.52;100.00
44979;BME280;67464;52.438;-1.904;2023-03-01T05:31:59;101749.02;;;3.33;100.00
44979;BME280;67464;52.438;-1.904;2023-03-01T05:34:24;101740.41;;;4.09;100.00
44979;BME280;67464;52.438;-1.904;2023-03-01T05:36:49;101741.54;;;4.17;100.00
44979;BME280;67464;52.438;-1.904;2023-03-01T05:39:14;101738.33;;;4.34;100.00
44979;BME280;67464;52.438;-1.904;2023-03-01T05:41:40;101739.38;;;4.47;100.00
44979;BME280;67464;52.438;-1.904;2023-03-01T05:44:06;101740.56;;;3.98;100.00
44979;BME280;67464;52.438;-1.904;2023-03-01T05:46:31;101738.99;;;3.64;100.00
44979;BME280;67464;52.438;-1.904;2023-03-01T05:48:56;101734.76;;;4.42;100.00
44979;BME280;67464;52.438;-1.904;2023-03-01T05:51:22;101737.44;;;4.69;100.00
44979;BME280;67464;52.438;-1.904;2023-03-01T05:53:47;101739.81;;;4.08;100.00
44979;BME280;67464;52.438;-1.904;2023-03-01T05:56:13;101739.82;;;4.24;100.00
44979;BME280;67464;52.438;-1.904;2023-03-01T05:58:38;101739.36;;;4.71;100.00
44979;BME280;67464;52.438;-1.904;2023-03-01T06:01:04;101736.95;;;4.20;100.00
44979;BME280;67464;52.438;-1.904;2023-03-01T06:03:29;101740.85;;;3.76;100.00
44979;BME280;67464;52.438;-1.904;2023-03-01T06:05:56;101739.48;;;4.20;100.00
44979;BME280;67464;52.438;-1.904;2023-03-01T06:08:20;101738.13;;;4.35;100.00
44979;BME280;67464;52.438;-1.904;2023-03-01T06:10:46;101735.30;;;4.51;100.00
44979;BME280;67464;52.438;-1.904;2023-03-01T06:13:11;101734.81;;;4.51;100.00
44979;BME280;67464;52.438;-1.904;2023-03-01T06:15:37;101736.87;;;5.13;100.00
44979;BME280;67464;52.438;-1.904;2023-03-01T06:18:02;101736.68;;;4.41;100.00
44979;BME280;67464;52.438;-1.904;2023-03-01T06:20:28;101736.53;;;3.93;100.00
44979;BME280;67464;52.438;-1.904;2023-03-01T06:22:53;101737.95;;;4.61;100.00
44979;BME280;67464;52.438;-1.904;2023-03-01T06:25:20;101742.43;;;3.31;100.00
44979;BME280;67464;52.438;-1.904;2023-03-01T06:27:44;101745.71;;;3.37;100.00
44979;BME280;67464;52.438;-1.904;2023-03-01T06:30:11;101743.87;;;3.52;100.00
44979;BME280;67464;52.438;-1.904;2023-03-01T06:32:35;101737.30;;;4.23;100.00
44979;BME280;67464;52.438;-1.904;2023-03-01T06:35:00;101744.53;;;3.30;100.00
44979;BME280;67464;52.438;-1.904;2023-03-01T06:37:26;101734.29;;;3.74;100.00
44979;BME280;67464;52.438;-1.904;2023-03-01T06:39:52;101736.31;;;4.38;100.00
44979;BME280;67464;52.438;-1.904;2023-03-01T06:42:17;101740.40;;;3.89;100.00
44979;BME280;67464;52.438;-1.904;2023-03-01T06:44:43;101739.40;;;4.29;100.00
44979;BME280;67464;52.438;-1.904;2023-03-01T06:47:07;101740.76;;;4.01;100.00
44979;BME280;67464;52.438;-1.904;2023-03-01T06:49:33;101744.66;;;4.03;100.00
44979;BME280;67464;52.438;-1.904;2023-03-01T06:51:58;101749.73;;;3.66;100.00
44979;BME280;67464;52.438;-1.904;2023-03-01T06:54:23;101754.31;;;3.97;100.00
44979;BME280;67464;52.438;-1.904;2023-03-01T06:56:49;101750.88;;;3.34;100.00
44979;BME280;67464;52.438;-1.904;2023-03-01T06:59:14;101753.96;;;3.35;100.00
44979;BME280;67464;52.438;-1.904;2023-03-01T07:01:39;101754.67;;;3.06;100.00
44979;BME280;67464;52.438;-1.904;2023-03-01T07:04:05;101753.68;;;2.65;100.00
44979;BME280;67464;52.438;-1.904;2023-03-01T07:06:30;101752.18;;;2.86;100.00
44979;BME280;67464;52.438;-1.904;2023-03-01T07:08:55;101757.30;;;2.99;100.00
44979;BME280;67464;52.438;-1.904;2023-03-01T07:11:20;101756.21;;;3.27;100.00
44979;BME280;67464;52.438;-1.904;2023-03-01T07:13:45;101757.48;;;3.57;100.00
44979;BME280;67464;52.438;-1.904;2023-03-01T07:16:11;101754.94;;;4.46;100.00
44979;BME280;67464;52.438;-1.904;2023-03-01T07:18:36;101756.45;;;4.77;100.00
44979;BME280;67464;52.438;-1.904;2023-03-01T07:21:04;101761.94;;;3.54;100.00
44979;BME280;67464;52.438;-1.904;2023-03-01T07:23:27;101768.23;;;3.32;100.00
44979;BME280;67464;52.438;-1.904;2023-03-01T07:25:53;101765.32;;;2.93;100.00
44979;BME280;67464;52.438;-1.904;2023-03-01T07:28:17;101770.70;;;2.97;100.00
44979;BME280;67464;52.438;-1.904;2023-03-01T07:30:42;101772.23;;;3.70;100.00
44979;BME280;67464;52.438;-1.904;2023-03-01T07:33:07;101764.49;;;4.12;100.00
44979;BME280;67464;52.438;-1.904;2023-03-01T07:35:33;101766.26;;;4.12;100.00
44979;BME280;67464;52.438;-1.904;2023-03-01T07:37:58;101760.84;;;4.01;100.00
44979;BME280;67464;52.438;-1.904;2023-03-01T07:40:24;101783.87;;;3.56;100.00
44979;BME280;67464;52.438;-1.904;2023-03-01T07:42:55;101786.51;;;3.73;100.00
44979;BME280;67464;52.438;-1.904;2023-03-01T07:45:15;101783.74;;;4.44;100.00
44979;BME280;67464;52.438;-1.904;2023-03-01T07:47:40;101785.40;;;4.17;100.00
44979;BME280;67464;52.438;-1.904;2023-03-01T07:50:06;101785.97;;;4.11;100.00
44979;BME280;67464;52.438;-1.904;2023-03-01T07:52:31;101784.17;;;3.83;100.00
44979;BME280;67464;52.438;-1.904;2023-03-01T07:54:56;101777.73;;;4.02;100.00
44979;BME280;67464;52.438;-1.904;2023-03-01T07:57:21;101786.00;;;3.47;100.00
44979;BME280;67464;52.438;-1.904;2023-03-01T07:59:47;101781.54;;;3.55;100.00
44979;BME280;67464;52.438;-1.904;2023-03-01T08:02:13;101771.50;;;3.59;100.00
44979;BME280;67464;52.438;-1.904;2023-03-01T08:04:38;101765.60;;;4.34;100.00
44979;BME280;67464;52.438;-1.904;2023-03-01T08:07:05;101767.92;;;5.01;100.00
44979;BME280;67464;52.438;-1.904;2023-03-01T08:09:28;101773.92;;;5.16;100.00
44979;BME280;67464;52.438;-1.904;2023-03-01T08:11:56;101774.00;;;4.84;100.00
44979;BME280;67464;52.438;-1.904;2023-03-01T08:14:20;101779.29;;;5.98;100.00
44979;BME280;67464;52.438;-1.904;2023-03-01T08:16:45;101782.36;;;5.16;100.00
44979;BME280;67464;52.438;-1.904;2023-03-01T08:19:12;101782.66;;;5.00;100.00
44979;BME280;67464;52.438;-1.904;2023-03-01T08:21:37;101779.18;;;5.53;100.00
44979;BME280;67464;52.438;-1.904;2023-03-01T08:24:03;101774.52;;;6.43;100.00
44979;BME280;67464;52.438;-1.904;2023-03-01T08:26:28;101782.73;;;5.83;100.00
44979;BME280;67464;52.438;-1.904;2023-03-01T08:28:54;101783.62;;;5.31;100.00
44979;BME280;67464;52.438;-1.904;2023-03-01T08:31:21;101780.97;;;4.81;100.00
44979;BME280;67464;52.438;-1.904;2023-03-01T08:33:45;101783.04;;;5.52;100.00
44979;BME280;67464;52.438;-1.904;2023-03-01T08:36:10;101778.68;;;5.63;100.00
44979;BME280;67464;52.438;-1.904;2023-03-01T08:38:35;101780.14;;;4.78;100.00
44979;BME280;67464;52.438;-1.904;2023-03-01T08:41:01;101780.30;;;5.85;100.00
44979;BME280;67464;52.438;-1.904;2023-03-01T08:43:26;101784.19;;;5.57;100.00
44979;BME280;67464;52.438;-1.904;2023-03-01T08:45:52;101788.25;;;5.15;100.00
44979;BME280;67464;52.438;-1.904;2023-03-01T08:48:18;101789.06;;;3.71;100.00
44979;BME280;67464;52.438;-1.904;2023-03-01T08:50:43;101792.77;;;3.71;100.00
44979;BME280;67464;52.438;-1.904;2023-03-01T08:53:09;101787.73;;;4.06;100.00
44979;BME280;67464;52.438;-1.904;2023-03-01T08:55:34;101794.06;;;3.96;100.00
44979;BME280;67464;52.438;-1.904;2023-03-01T08:57:59;101798.03;;;4.38;100.00
44979;BME280;67464;52.438;-1.904;2023-03-01T09:00:25;101802.00;;;3.44;100.00
44979;BME280;67464;52.438;-1.904;2023-03-01T09:02:51;101797.96;;;4.34;100.00
44979;BME280;67464;52.438;-1.904;2023-03-01T09:05:17;101788.81;;;4.34;100.00
44979;BME280;67464;52.438;-1.904;2023-03-01T09:07:43;101791.96;;;3.62;100.00
44979;BME280;67464;52.438;-1.904;2023-03-01T09:10:10;101782.11;;;3.52;100.00
44979;BME280;67464;52.438;-1.904;2023-03-01T09:12:34;101780.27;;;3.54;100.00
44979;BME280;67464;52.438;-1.904;2023-03-01T09:15:00;101771.66;;;4.92;100.00
44979;BME280;67464;52.438;-1.904;2023-03-01T09:17:25;101767.33;;;5.48;100.00
44979;BME280;67464;52.438;-1.904;2023-03-01T09:19:51;101759.81;;;5.79;100.00
44979;BME280;67464;52.438;-1.904;2023-03-01T09:22:17;101757.94;;;5.04;100.00
44979;BME280;67464;52.438;-1.904;2023-03-01T09:24:43;101755.36;;;5.01;100.00
44979;BME280;67464;52.438;-1.904;2023-03-01T09:27:08;101751.36;;;5.78;100.00
44979;BME280;67464;52.438;-1.904;2023-03-01T09:29:35;101749.15;;;5.21;100.00
44979;BME280;67464;52.438;-1.904;2023-03-01T09:32:00;101752.05;;;5.38;100.00
44979;BME280;67464;52.438;-1.904;2023-03-01T09:34:26;101749.16;;;5.22;100.00
44979;BME280;67464;52.438;-1.904;2023-03-01T09:36:51;101744.87;;;5.52;100.00
44979;BME280;67464;52.438;-1.904;2023-03-01T09:39:17;101742.18;;;5.95;100.00
44979;BME280;67464;52.438;-1.904;2023-03-01T09:41:47;101740.10;;;5.73;100.00
44979;BME280;67464;52.438;-1.904;2023-03-01T09:44:13;101741.84;;;5.83;100.00
44979;BME280;67464;52.438;-1.904;2023-03-01T09:46:40;101744.86;;;5.57;100.00
44979;BME280;67464;52.438;-1.904;2023-03-01T09:49:02;101736.70;;;4.88;100.00
44979;BME280;67464;52.438;-1.904;2023-03-01T09:51:29;101735.92;;;5.30;100.00
44979;BME280;67464;52.438;-1.904;2023-03-01T09:53:51;101732.43;;;4.63;100.00
44979;BME280;67464;52.438;-1.904;2023-03-01T09:56:20;101735.42;;;4.24;100.00
44979;BME280;67464;52.438;-1.904;2023-03-01T09:58:48;101726.59;;;3.92;100.00
44979;BME280;67464;52.438;-1.904;2023-03-01T10:01:26;101724.61;;;4.32;100.00
44979;BME280;67464;52.438;-1.904;2023-03-01T10:03:38;101717.81;;;5.09;100.00
44979;BME280;67464;52.438;-1.904;2023-03-01T10:06:04;101711.17;;;4.60;100.00
44979;BME280;67464;52.438;-1.904;2023-03-01T10:08:30;101711.25;;;5.27;100.00
44979;BME280;67464;52.438;-1.904;2023-03-01T10:10:51;101711.45;;;5.31;100.00
44979;BME280;67464;52.438;-1.904;2023-03-01T10:13:20;101706.69;;;5.45;100.00
44979;BME280;67464;52.438;-1.904;2023-03-01T10:15:47;101703.25;;;5.10;100.00
44979;BME280;67464;52.438;-1.904;2023-03-01T10:18:13;101701.58;;;4.78;100.00
44979;BME280;67464;52.438;-1.904;2023-03-01T10:20:42;101696.89;;;5.25;100.00
44979;BME280;67464;52.438;-1.904;2023-03-01T10:23:00;101692.14;;;6.16;100.00
44979;BME280;67464;52.438;-1.904;2023-03-01T10:25:41;101692.46;;;6.21;100.00
44979;BME280;67464;52.438;-1.904;2023-03-01T10:27:53;101692.02;;;6.77;100.00
44979;BME280;67464;52.438;-1.904;2023-03-01T10:30:20;101689.44;;;6.06;100.00
44979;BME280;67464;52.438;-1.904;2023-03-01T10:32:43;101688.50;;;6.30;100.00
44979;BME280;67464;52.438;-1.904;2023-03-01T10:35:17;101687.12;;;5.93;100.00
44979;BME280;67464;52.438;-1.904;2023-03-01T10:37:33;101686.65;;;5.80;100.00
44979;BME280;67464;52.438;-1.904;2023-03-01T10:40:02;101688.83;;;5.96;100.00
44979;BME280;67464;52.438;-1.904;2023-03-01T10:42:28;101687.60;;;5.76;100.00
44979;BME280;67464;52.438;-1.904;2023-03-01T10:44:50;101685.32;;;6.22;100.00
44979;BME280;67464;52.438;-1.904;2023-03-01T10:47:19;101685.38;;;5.27;100.00
44979;BME280;67464;52.438;-1.904;2023-03-01T10:49:51;101687.35;;;4.91;100.00
44979;BME280;67464;52.438;-1.904;2023-03-01T10:52:18;101678.08;;;5.68;100.00
44979;BME280;67464;52.438;-1.904;2023-03-01T10:54:38;101680.55;;;5.78;100.00
44979;BME280;67464;52.438;-1.904;2023-03-01T10:57:00;101677.57;;;5.72;100.00
44979;BME280;67464;52.438;-1.904;2023-03-01T10:59:27;101674.81;;;6.48;100.00
44979;BME280;67464;52.438;-1.904;2023-03-01T11:02:15;101665.48;;;6.55;100.00
44979;BME280;67464;52.438;-1.904;2023-03-01T11:04:15;101661.19;;;6.01;100.00
44979;BME280;67464;52.438;-1.904;2023-03-01T11:06:41;101657.58;;;5.99;100.00
44979;BME280;67464;52.438;-1.904;2023-03-01T11:09:13;101651.46;;;5.92;100.00
44979;BME280;67464;52.438;-1.904;2023-03-01T11:11:33;101648.47;;;5.78;100.00
44979;BME280;67464;52.438;-1.904;2023-03-01T11:14:00;101648.84;;;5.93;100.00
44979;BME280;67464;52.438;-1.904;2023-03-01T11:16:27;101644.09;;;5.08;100.00
44979;BME280;67464;52.438;-1.904;2023-03-01T11:18:56;101646.86;;;4.14;100.00
44979;BME280;67464;52.438;-1.904;2023-03-01T11:21:15;101642.84;;;4.90;100.00
44979;BME280;67464;52.438;-1.904;2023-03-01T11:23:41;101639.52;;;4.82;100.00
44979;BME280;67464;52.438;-1.904;2023-03-01T11:26:08;101644.40;;;5.24;100.00
44979;BME280;67464;52.438;-1.904;2023-03-01T11:28:33;101638.68;;;5.60;100.00
44979;BME280;67464;52.438;-1.904;2023-03-01T11:31:02;101634.58;;;5.71;100.00
44979;BME280;67464;52.438;-1.904;2023-03-01T11:33:33;101633.33;;;5.06;100.00
44979;BME280;67464;52.438;-1.904;2023-03-01T11:35:55;101630.15;;;5.61;100.00
44979;BME280;67464;52.438;-1.904;2023-03-01T11:38:21;101630.65;;;5.77;100.00
44979;BME280;67464;52.438;-1.904;2023-03-01T11:40:43;101628.36;;;5.53;100.00
44979;BME280;67464;52.438;-1.904;2023-03-01T11:43:14;101632.77;;;5.52;100.00
44979;BME280;67464;52.438;-1.904;2023-03-01T11:45:39;101628.89;;;5.46;100.00
44979;BME280;67464;52.438;-1.904;2023-03-01T11:48:06;101630.65;;;5.91;100.00
44979;BME280;67464;52.438;-1.904;2023-03-01T11:50:29;101627.23;;;6.33;100.00
44979;BME280;67464;52.438;-1.904;2023-03-01T11:52:59;101627.24;;;6.10;100.00
44979;BME280;67464;52.438;-1.904;2023-03-01T11:55:23;101628.76;;;5.74;100.00
44979;BME280;67464;52.438;-1.904;2023-03-01T11:57:49;101634.98;;;5.73;100.00
44979;BME280;67464;52.438;-1.904;2023-03-01T12:00:14;101630.01;;;6.49;100.00
44979;BME280;67464;52.438;-1.904;2023-03-01T12:02:47;101617.92;;;5.78;100.00
44979;BME280;67464;52.438;-1.904;2023-03-01T12:05:08;101621.85;;;6.43;100.00
44979;BME280;67464;52.438;-1.904;2023-03-01T12:07:27;101616.95;;;6.95;100.00
44979;BME280;67464;52.438;-1.904;2023-03-01T12:10:01;101620.72;;;5.93;100.00
44979;BME280;67464;52.438;-1.904;2023-03-01T12:12:27;101611.96;;;5.83;100.00
44979;BME280;67464;52.438;-1.904;2023-03-01T12:14:53;101610.56;;;6.06;100.00
44979;BME280;67464;52.438;-1.904;2023-03-01T12:17:16;101600.43;;;6.03;100.00
44979;BME280;67464;52.438;-1.904;2023-03-01T12:19:39;101603.40;;;5.94;100.00
44979;BME280;67464;52.438;-1.904;2023-03-01T12:22:09;101596.83;;;6.14;100.00
44979;BME280;67464;52.438;-1.904;2023-03-01T12:24:39;101589.54;;;7.30;98.58
44979;BME280;67464;52.438;-1.904;2023-03-01T12:26:56;101590.53;;;6.30;88.62
44979;BME280;67464;52.438;-1.904;2023-03-01T12:29:24;101586.25;;;6.54;96.37
44979;BME280;67464;52.438;-1.904;2023-03-01T12:31:51;101578.12;;;5.83;100.00